NDF7516 EDDM-KMIA
Flight info
| Callsign | NDF7516 |
|---|---|
| Flight time | N/A |
| Altitude | 34000 |
| Route | GIVMI1N GIVMI Y101 INBED DCT REKDI DCT LOHRE DCT ADKUV DCT DENUT L610 KOPUL DCT ENHAQ DCT GAJIT DCT BAPHU DCT ARKIL/M084F340 DCT SOMAX/M084F360 DCT 51N020W 51N030W 51N040W 50N050W DCT ELSIR/N0499F380 N402C ALLEX DCT FOXBO DCT RIFLE DCT HEADI Q97 KALDA Q101 PRANK/N0484F400 Q101 SKARP Y313 HOAGG BNFSH3 |
| Aircraft | A35K/H-SDE2E3GHIJ3J4J5LM1ORWXY/LB1D1 |
Departure
| Time | 2026-05-04 07:02 |
|---|---|
| Airport | Munich Airport (EDDM) |
Arrival
| Time | N/A |
|---|---|
| Airport | Miami International Airport (KMIA) |
| Time | Latitude | Longitude | Altitude | Speed | Heading |
|---|---|---|---|---|---|
| 2026-05-04 05:26 | 48.35468 | 11.79731 | 1479 ft | 0 kts | 83° |
| 2026-05-04 06:48 | 48.35458 | 11.79623 | 1475 ft | 4 kts | 59° |
| 2026-05-04 06:48 | 48.35441 | 11.79598 | 1475 ft | 4 kts | 15° |
| 2026-05-04 06:49 | 48.35416 | 11.79596 | 1477 ft | 4 kts | 353° |
| 2026-05-04 06:50 | 48.35391 | 11.79601 | 1491 ft | 0 kts | 353° |
| 2026-05-04 06:53 | 48.35394 | 11.79600 | 1491 ft | 2 kts | 353° |
| 2026-05-04 06:53 | 48.35439 | 11.79593 | 1486 ft | 9 kts | 353° |
| 2026-05-04 06:53 | 48.35503 | 11.79581 | 1475 ft | 10 kts | 353° |
| 2026-05-04 06:54 | 48.35574 | 11.79569 | 1477 ft | 11 kts | 353° |
| 2026-05-04 06:54 | 48.35651 | 11.79556 | 1482 ft | 12 kts | 353° |
| 2026-05-04 06:54 | 48.35734 | 11.79541 | 1477 ft | 12 kts | 353° |
| 2026-05-04 06:54 | 48.35821 | 11.79526 | 1481 ft | 13 kts | 353° |
| 2026-05-04 06:55 | 48.35914 | 11.79510 | 1479 ft | 14 kts | 353° |
| 2026-05-04 06:55 | 48.36011 | 11.79493 | 1477 ft | 14 kts | 353° |
| 2026-05-04 06:55 | 48.36112 | 11.79476 | 1477 ft | 15 kts | 353° |
| 2026-05-04 06:55 | 48.36204 | 11.79512 | 1491 ft | 14 kts | 53° |
| 2026-05-04 06:56 | 48.36228 | 11.79656 | 1478 ft | 15 kts | 83° |
| 2026-05-04 06:57 | 48.36321 | 11.80845 | 1477 ft | 18 kts | 83° |
| 2026-05-04 06:58 | 48.36335 | 11.81034 | 1491 ft | 18 kts | 83° |
| 2026-05-04 06:58 | 48.36345 | 11.81164 | 1487 ft | 19 kts | 83° |
| 2026-05-04 06:58 | 48.36359 | 11.81356 | 1481 ft | 19 kts | 84° |
| 2026-05-04 06:58 | 48.36374 | 11.81554 | 1475 ft | 19 kts | 84° |
| 2026-05-04 06:59 | 48.36389 | 11.81755 | 1478 ft | 19 kts | 83° |
| 2026-05-04 06:59 | 48.36390 | 11.81957 | 1479 ft | 19 kts | 91° |
| 2026-05-04 06:59 | 48.36400 | 11.82086 | 1487 ft | 10 kts | 70° |
| 2026-05-04 06:59 | 48.36454 | 11.82136 | 1491 ft | 9 kts | 360° |
| 2026-05-04 07:01 | 48.36468 | 11.79252 | 1485 ft | 158 kts | 263° |
| 2026-05-04 07:01 | 48.36340 | 11.77525 | 1891 ft | 160 kts | 264° |
| 2026-05-04 07:02 | 48.36215 | 11.75875 | 2409 ft | 161 kts | 264° |
| 2026-05-04 07:02 | 48.36087 | 11.74191 | 2847 ft | 163 kts | 264° |
| 2026-05-04 07:02 | 48.35964 | 11.72492 | 3246 ft | 168 kts | 264° |
| 2026-05-04 07:02 | 48.35838 | 11.70736 | 3725 ft | 168 kts | 264° |
| 2026-05-04 07:03 | 48.35729 | 11.68979 | 4117 ft | 171 kts | 268° |
| 2026-05-04 07:03 | 48.35995 | 11.67245 | 4475 ft | 172 kts | 295° |
| 2026-05-04 07:03 | 48.36600 | 11.65641 | 4720 ft | 183 kts | 301° |
| 2026-05-04 07:03 | 48.37306 | 11.63958 | 4926 ft | 198 kts | 301° |
| 2026-05-04 07:04 | 48.38067 | 11.62133 | 5141 ft | 214 kts | 301° |
| 2026-05-04 07:04 | 48.38882 | 11.60168 | 5392 ft | 227 kts | 301° |
| 2026-05-04 07:04 | 48.39877 | 11.58236 | 5714 ft | 242 kts | 315° |
| 2026-05-04 07:04 | 48.41305 | 11.56754 | 5993 ft | 260 kts | 330° |
| 2026-05-04 07:05 | 48.42973 | 11.55488 | 6390 ft | 274 kts | 333° |
| 2026-05-04 07:05 | 48.44714 | 11.54264 | 7022 ft | 278 kts | 334° |
| 2026-05-04 07:05 | 48.46481 | 11.53039 | 7684 ft | 281 kts | 334° |
| 2026-05-04 07:05 | 48.48269 | 11.51793 | 8359 ft | 285 kts | 334° |
| 2026-05-04 07:06 | 48.51903 | 11.49258 | 9687 ft | 291 kts | 334° |
| 2026-05-04 07:06 | 48.53735 | 11.47979 | 10280 ft | 297 kts | 334° |
| 2026-05-04 07:06 | 48.55685 | 11.46612 | 10613 ft | 313 kts | 334° |
| 2026-05-04 07:07 | 48.57690 | 11.45207 | 10905 ft | 330 kts | 334° |
| 2026-05-04 07:08 | 48.73944 | 11.32878 | 13645 ft | 398 kts | 326° |
| 2026-05-04 07:09 | 48.76251 | 11.30527 | 14187 ft | 401 kts | 324° |
| 2026-05-04 07:09 | 48.78558 | 11.28115 | 14740 ft | 404 kts | 324° |
| 2026-05-04 07:09 | 48.80884 | 11.25679 | 15282 ft | 408 kts | 324° |
| 2026-05-04 07:09 | 48.83256 | 11.23294 | 15817 ft | 411 kts | 329° |
| 2026-05-04 07:10 | 48.85845 | 11.21403 | 16371 ft | 415 kts | 336° |
| 2026-05-04 07:10 | 48.88549 | 11.19791 | 16859 ft | 418 kts | 339° |
| 2026-05-04 07:12 | 49.08402 | 11.09786 | 20306 ft | 440 kts | 340° |
| 2026-05-04 07:12 | 49.11315 | 11.08302 | 20774 ft | 443 kts | 340° |
| 2026-05-04 07:12 | 49.14251 | 11.06809 | 21273 ft | 446 kts | 340° |
| 2026-05-04 07:12 | 49.17204 | 11.05299 | 21752 ft | 449 kts | 340° |
| 2026-05-04 07:13 | 49.20172 | 11.03778 | 22219 ft | 452 kts | 340° |
| 2026-05-04 07:13 | 49.23165 | 11.02241 | 22701 ft | 455 kts | 340° |
| 2026-05-04 07:13 | 49.26176 | 11.00687 | 23150 ft | 458 kts | 340° |
| 2026-05-04 07:14 | 49.38049 | 10.93315 | 24934 ft | 467 kts | 324° |
| 2026-05-04 07:14 | 49.40590 | 10.90209 | 25340 ft | 468 kts | 315° |
| 2026-05-04 07:15 | 49.42826 | 10.86573 | 25782 ft | 469 kts | 310° |
| 2026-05-04 07:15 | 49.44950 | 10.82751 | 26201 ft | 471 kts | 308° |
| 2026-05-04 07:15 | 49.47018 | 10.78836 | 26609 ft | 473 kts | 307° |
| 2026-05-04 07:15 | 49.49069 | 10.74867 | 27001 ft | 475 kts | 307° |
| 2026-05-04 07:16 | 49.51131 | 10.70861 | 27366 ft | 478 kts | 307° |
| 2026-05-04 07:16 | 49.53206 | 10.66845 | 27750 ft | 480 kts | 307° |
| 2026-05-04 07:16 | 49.55297 | 10.62816 | 28118 ft | 482 kts | 307° |
| 2026-05-04 07:16 | 49.57399 | 10.58782 | 28468 ft | 484 kts | 307° |
| 2026-05-04 07:17 | 49.59486 | 10.54781 | 28804 ft | 486 kts | 307° |
| 2026-05-04 07:17 | 49.61608 | 10.50714 | 29117 ft | 488 kts | 307° |
| 2026-05-04 07:17 | 49.63739 | 10.46628 | 29455 ft | 488 kts | 307° |
| 2026-05-04 07:17 | 49.65860 | 10.42553 | 29925 ft | 486 kts | 307° |
| 2026-05-04 07:18 | 49.67890 | 10.38416 | 30360 ft | 483 kts | 304° |
| 2026-05-04 07:18 | 49.69794 | 10.34141 | 30735 ft | 482 kts | 302° |
| 2026-05-04 07:18 | 49.71638 | 10.29815 | 31093 ft | 481 kts | 302° |
| 2026-05-04 07:18 | 49.73469 | 10.25480 | 31423 ft | 481 kts | 302° |
| 2026-05-04 07:19 | 49.75307 | 10.21161 | 31755 ft | 480 kts | 302° |
| 2026-05-04 07:19 | 49.77158 | 10.16860 | 32054 ft | 480 kts | 302° |
| 2026-05-04 07:19 | 49.79015 | 10.12582 | 32337 ft | 479 kts | 302° |
| 2026-05-04 07:19 | 49.80881 | 10.08309 | 32656 ft | 479 kts | 302° |
| 2026-05-04 07:20 | 49.82747 | 10.04047 | 32961 ft | 478 kts | 302° |
| 2026-05-04 07:20 | 49.84607 | 9.99793 | 33235 ft | 477 kts | 302° |
| 2026-05-04 07:20 | 49.86469 | 9.95526 | 33495 ft | 477 kts | 302° |
| 2026-05-04 07:20 | 49.88322 | 9.91272 | 33734 ft | 476 kts | 302° |
| 2026-05-04 07:22 | 50.01340 | 9.61158 | 34028 ft | 481 kts | 302° |
| 2026-05-04 07:22 | 50.03199 | 9.56831 | 34034 ft | 481 kts | 302° |
| 2026-05-04 07:23 | 50.06524 | 9.47950 | 34022 ft | 478 kts | 291° |
| 2026-05-04 07:23 | 50.08609 | 9.38163 | 34025 ft | 477 kts | 284° |
| 2026-05-04 07:24 | 50.10377 | 9.28210 | 34024 ft | 476 kts | 283° |
| 2026-05-04 07:24 | 50.12086 | 9.18243 | 34013 ft | 476 kts | 283° |
| 2026-05-04 07:26 | 50.18950 | 8.78440 | 34022 ft | 475 kts | 283° |
| 2026-05-04 07:27 | 50.20647 | 8.68480 | 34017 ft | 475 kts | 283° |
| 2026-05-04 07:27 | 50.22340 | 8.58507 | 34022 ft | 475 kts | 283° |
| 2026-05-04 07:28 | 50.24021 | 8.48543 | 34022 ft | 474 kts | 283° |
| 2026-05-04 07:28 | 50.25693 | 8.38570 | 34025 ft | 474 kts | 283° |
| 2026-05-04 07:29 | 50.27357 | 8.28576 | 34038 ft | 475 kts | 283° |
| 2026-05-04 07:29 | 50.29009 | 8.18596 | 34041 ft | 474 kts | 283° |
| 2026-05-04 07:30 | 50.30632 | 8.08740 | 34043 ft | 474 kts | 282° |
| 2026-05-04 07:30 | 50.32266 | 7.98751 | 34034 ft | 474 kts | 282° |
| 2026-05-04 07:31 | 50.33883 | 7.88810 | 34026 ft | 475 kts | 282° |
| 2026-05-04 07:33 | 50.40310 | 7.48732 | 34022 ft | 474 kts | 282° |
| 2026-05-04 07:33 | 50.41895 | 7.38691 | 34007 ft | 475 kts | 282° |
| 2026-05-04 07:34 | 50.43475 | 7.28628 | 33999 ft | 475 kts | 282° |
| 2026-05-04 07:34 | 50.45043 | 7.18570 | 33998 ft | 475 kts | 282° |
| 2026-05-04 07:35 | 50.46594 | 7.08561 | 34000 ft | 474 kts | 282° |
| 2026-05-04 07:35 | 50.48143 | 6.98499 | 33989 ft | 474 kts | 281° |
| 2026-05-04 07:36 | 50.49689 | 6.88414 | 33988 ft | 475 kts | 281° |
| 2026-05-04 07:38 | 50.58713 | 6.49210 | 33990 ft | 478 kts | 289° |
| 2026-05-04 07:38 | 50.61098 | 6.39453 | 33992 ft | 478 kts | 289° |
| 2026-05-04 07:39 | 50.63473 | 6.29676 | 33988 ft | 478 kts | 288° |
| 2026-05-04 07:39 | 50.65840 | 6.19882 | 33990 ft | 478 kts | 288° |
| 2026-05-04 07:40 | 50.68182 | 6.10150 | 33991 ft | 478 kts | 288° |
| 2026-05-04 07:40 | 50.70529 | 6.00344 | 33988 ft | 478 kts | 288° |
| 2026-05-04 07:41 | 50.72869 | 5.90528 | 33989 ft | 477 kts | 288° |
| 2026-05-04 07:41 | 50.75198 | 5.80724 | 33991 ft | 477 kts | 288° |
| 2026-05-04 07:42 | 50.77520 | 5.70903 | 33990 ft | 477 kts | 288° |
| 2026-05-04 07:42 | 50.79828 | 5.61092 | 33991 ft | 476 kts | 288° |
| 2026-05-04 07:43 | 50.82074 | 5.51505 | 33990 ft | 476 kts | 288° |
| 2026-05-04 07:43 | 50.84313 | 5.41899 | 33991 ft | 476 kts | 288° |
| 2026-05-04 07:44 | 50.86595 | 5.32061 | 33991 ft | 476 kts | 288° |
| 2026-05-04 07:44 | 50.88487 | 5.23876 | 33990 ft | 476 kts | 288° |
| 2026-05-04 07:45 | 50.90752 | 5.14035 | 33989 ft | 476 kts | 287° |
| 2026-05-04 07:45 | 50.93007 | 5.04188 | 33990 ft | 475 kts | 287° |
| 2026-05-04 07:46 | 50.95256 | 4.94326 | 33990 ft | 475 kts | 287° |
| 2026-05-04 07:46 | 50.97493 | 4.84465 | 33991 ft | 475 kts | 287° |
| 2026-05-04 07:47 | 50.99708 | 4.74664 | 33990 ft | 474 kts | 287° |
| 2026-05-04 07:49 | 51.08523 | 4.35182 | 33990 ft | 473 kts | 287° |
| 2026-05-04 07:49 | 51.10704 | 4.25310 | 33989 ft | 473 kts | 287° |
| 2026-05-04 07:50 | 51.12876 | 4.15421 | 33992 ft | 473 kts | 287° |
| 2026-05-04 07:50 | 51.15022 | 4.05595 | 33987 ft | 473 kts | 287° |
| 2026-05-04 07:51 | 51.17174 | 3.95695 | 33980 ft | 473 kts | 287° |
| 2026-05-04 07:51 | 51.19319 | 3.85801 | 33981 ft | 473 kts | 286° |
| 2026-05-04 07:52 | 51.21451 | 3.75899 | 33981 ft | 472 kts | 286° |
| 2026-05-04 07:52 | 51.23503 | 3.65937 | 33980 ft | 471 kts | 282° |
| 2026-05-04 07:54 | 51.28965 | 3.25165 | 33989 ft | 470 kts | 279° |
| 2026-05-04 07:55 | 51.30259 | 3.14920 | 33989 ft | 470 kts | 279° |
| 2026-05-04 07:55 | 51.31554 | 3.04664 | 33988 ft | 471 kts | 279° |
| 2026-05-04 07:56 | 51.32847 | 2.94401 | 33989 ft | 471 kts | 279° |
| 2026-05-04 07:56 | 51.34129 | 2.84130 | 33991 ft | 471 kts | 279° |
| 2026-05-04 07:57 | 51.35403 | 2.73865 | 33991 ft | 472 kts | 279° |
| 2026-05-04 07:57 | 51.36672 | 2.63617 | 33988 ft | 472 kts | 279° |
| 2026-05-04 07:58 | 51.37901 | 2.53592 | 33989 ft | 473 kts | 279° |
| 2026-05-04 07:58 | 51.39149 | 2.43322 | 33990 ft | 473 kts | 279° |
| 2026-05-04 07:59 | 51.40396 | 2.32990 | 33990 ft | 473 kts | 279° |
| 2026-05-04 07:59 | 51.41640 | 2.22639 | 33991 ft | 473 kts | 279° |
| 2026-05-04 08:00 | 51.42902 | 2.12290 | 33990 ft | 473 kts | 279° |
| 2026-05-04 08:02 | 51.47816 | 1.70813 | 33990 ft | 475 kts | 278° |
| 2026-05-04 08:02 | 51.49000 | 1.60392 | 33991 ft | 475 kts | 278° |
| 2026-05-04 08:03 | 51.50188 | 1.49971 | 33989 ft | 475 kts | 278° |
| 2026-05-04 08:03 | 51.51362 | 1.39526 | 33990 ft | 475 kts | 278° |
| 2026-05-04 08:04 | 51.52530 | 1.29071 | 33991 ft | 476 kts | 278° |
| 2026-05-04 08:04 | 51.53685 | 1.18602 | 33997 ft | 476 kts | 277° |
| 2026-05-04 08:05 | 51.54000 | 1.08046 | 33998 ft | 473 kts | 266° |
| 2026-05-04 08:05 | 51.53691 | 0.97492 | 33991 ft | 473 kts | 265° |
| 2026-05-04 08:06 | 51.53275 | 0.86943 | 33996 ft | 474 kts | 265° |
| 2026-05-04 08:06 | 51.52849 | 0.76363 | 33990 ft | 474 kts | 265° |
| 2026-05-04 08:08 | 51.51139 | 0.34032 | 34008 ft | 475 kts | 265° |
| 2026-05-04 08:11 | 51.49032 | -0.13671 | 34017 ft | 480 kts | 265° |
| 2026-05-04 08:11 | 51.48277 | -0.29780 | 34018 ft | 484 kts | 265° |
| 2026-05-04 08:12 | 51.47763 | -0.40468 | 34013 ft | 483 kts | 264° |
| 2026-05-04 08:12 | 51.47237 | -0.51220 | 34017 ft | 484 kts | 264° |
| 2026-05-04 08:13 | 51.46700 | -0.61981 | 34017 ft | 484 kts | 264° |
| 2026-05-04 08:13 | 51.46180 | -0.72240 | 34017 ft | 484 kts | 264° |
| 2026-05-04 08:14 | 51.45624 | -0.82994 | 34013 ft | 484 kts | 264° |
| 2026-05-04 08:16 | 51.43331 | -1.25452 | 34006 ft | 484 kts | 264° |
| 2026-05-04 08:16 | 51.42724 | -1.36210 | 34010 ft | 485 kts | 264° |
| 2026-05-04 08:17 | 51.42108 | -1.46970 | 34009 ft | 485 kts | 264° |
| 2026-05-04 08:17 | 51.41487 | -1.57661 | 34010 ft | 485 kts | 264° |
| 2026-05-04 08:19 | 51.35805 | -1.94088 | 33998 ft | 484 kts | 250° |
| 2026-05-04 08:19 | 51.34770 | -1.99213 | 34000 ft | 484 kts | 255° |
| 2026-05-04 08:20 | 51.33552 | -2.09806 | 33999 ft | 485 kts | 261° |
| 2026-05-04 08:20 | 51.32594 | -2.20493 | 34000 ft | 486 kts | 262° |
| 2026-05-04 08:21 | 51.31667 | -2.31188 | 33998 ft | 486 kts | 261° |
| 2026-05-04 08:21 | 51.30720 | -2.41806 | 33998 ft | 486 kts | 261° |
| 2026-05-04 08:22 | 51.29747 | -2.52489 | 33999 ft | 486 kts | 261° |
| 2026-05-04 08:24 | 51.25732 | -2.95224 | 34000 ft | 487 kts | 261° |
| 2026-05-04 08:24 | 51.24701 | -3.05923 | 33999 ft | 488 kts | 261° |
| 2026-05-04 08:25 | 51.23659 | -3.16625 | 34009 ft | 488 kts | 261° |
| 2026-05-04 08:25 | 51.22606 | -3.27331 | 34005 ft | 489 kts | 261° |
| 2026-05-04 08:27 | 51.18297 | -3.70172 | 34005 ft | 491 kts | 260° |
| 2026-05-04 08:28 | 51.17196 | -3.80904 | 34010 ft | 491 kts | 260° |
| 2026-05-04 08:28 | 51.16080 | -3.91636 | 34006 ft | 491 kts | 260° |
| 2026-05-04 08:29 | 51.14950 | -4.02375 | 34011 ft | 491 kts | 260° |
| 2026-05-04 08:31 | 51.10550 | -4.43361 | 33998 ft | 494 kts | 260° |
| 2026-05-04 08:33 | 51.05836 | -4.85765 | 33998 ft | 495 kts | 259° |
| 2026-05-04 08:35 | 51.00915 | -5.28585 | 33991 ft | 496 kts | 259° |
| 2026-05-04 08:35 | 50.99650 | -5.39366 | 33991 ft | 497 kts | 259° |
| 2026-05-04 08:37 | 50.95137 | -5.77067 | 33991 ft | 497 kts | 259° |
| 2026-05-04 08:38 | 50.93823 | -5.87845 | 33988 ft | 498 kts | 259° |
| 2026-05-04 08:38 | 50.92500 | -5.98623 | 33989 ft | 498 kts | 259° |
| 2026-05-04 08:40 | 50.87094 | -6.41750 | 34014 ft | 500 kts | 259° |
| 2026-05-04 08:41 | 50.85715 | -6.52539 | 34018 ft | 500 kts | 258° |
| 2026-05-04 08:41 | 50.84327 | -6.63330 | 34020 ft | 500 kts | 258° |
| 2026-05-04 08:42 | 50.82935 | -6.74044 | 34029 ft | 501 kts | 258° |
| 2026-05-04 08:42 | 50.81520 | -6.84834 | 34032 ft | 501 kts | 258° |
| 2026-05-04 08:43 | 50.80099 | -6.95620 | 34030 ft | 501 kts | 258° |
| 2026-05-04 08:43 | 50.78668 | -7.06396 | 34026 ft | 501 kts | 258° |
| 2026-05-04 08:44 | 50.77226 | -7.17172 | 34026 ft | 502 kts | 258° |
| 2026-05-04 08:46 | 50.71357 | -7.60243 | 34032 ft | 502 kts | 258° |
| 2026-05-04 08:46 | 50.69862 | -7.71010 | 34031 ft | 502 kts | 258° |
| 2026-05-04 08:47 | 50.68357 | -7.81786 | 34031 ft | 502 kts | 258° |
| 2026-05-04 08:47 | 50.66840 | -7.92545 | 34032 ft | 502 kts | 257° |
| 2026-05-04 08:48 | 50.65608 | -8.03367 | 34039 ft | 502 kts | 263° |
| 2026-05-04 08:48 | 50.64848 | -8.14234 | 34039 ft | 502 kts | 264° |
| 2026-05-04 08:49 | 50.64150 | -8.25194 | 34034 ft | 503 kts | 265° |
| 2026-05-04 08:50 | 50.61608 | -8.63565 | 34046 ft | 503 kts | 264° |
| 2026-05-04 08:51 | 50.60852 | -8.74529 | 34044 ft | 504 kts | 264° |
| 2026-05-04 08:51 | 50.60086 | -8.85491 | 34053 ft | 504 kts | 264° |
| 2026-05-04 08:52 | 50.59308 | -8.96475 | 34054 ft | 504 kts | 264° |
| 2026-05-04 08:52 | 50.58520 | -9.07441 | 34053 ft | 504 kts | 264° |
| 2026-05-04 08:54 | 50.55262 | -9.51313 | 34055 ft | 505 kts | 264° |
| 2026-05-04 08:55 | 50.54422 | -9.62265 | 34062 ft | 505 kts | 264° |
| 2026-05-04 08:55 | 50.53571 | -9.73219 | 34063 ft | 504 kts | 264° |
| 2026-05-04 09:01 | 50.44021 | -10.88008 | 34071 ft | 507 kts | 263° |
| 2026-05-04 09:01 | 50.43048 | -10.98965 | 34072 ft | 507 kts | 263° |
| 2026-05-04 09:02 | 50.42065 | -11.09913 | 34074 ft | 507 kts | 263° |
| 2026-05-04 09:02 | 50.41072 | -11.20875 | 34074 ft | 508 kts | 263° |
| 2026-05-04 09:03 | 50.40067 | -11.31829 | 34073 ft | 508 kts | 263° |
| 2026-05-04 09:03 | 50.39050 | -11.42804 | 34075 ft | 508 kts | 263° |
| 2026-05-04 09:04 | 50.38023 | -11.53767 | 34072 ft | 508 kts | 263° |
| 2026-05-04 09:04 | 50.36986 | -11.64729 | 34075 ft | 509 kts | 263° |
| 2026-05-04 09:05 | 50.35942 | -11.75681 | 34071 ft | 509 kts | 263° |
| 2026-05-04 09:05 | 50.34882 | -11.86627 | 34072 ft | 508 kts | 262° |
| 2026-05-04 09:06 | 50.33813 | -11.97577 | 34071 ft | 509 kts | 262° |
| 2026-05-04 09:08 | 50.29439 | -12.41297 | 34073 ft | 509 kts | 262° |
| 2026-05-04 09:08 | 50.28318 | -12.52221 | 34074 ft | 509 kts | 262° |
| 2026-05-04 09:09 | 50.27188 | -12.63143 | 34070 ft | 509 kts | 262° |
| 2026-05-04 09:09 | 50.26046 | -12.74073 | 34074 ft | 509 kts | 262° |
| 2026-05-04 09:10 | 50.24899 | -12.84933 | 34074 ft | 510 kts | 262° |
| 2026-05-04 09:10 | 50.23734 | -12.95878 | 34072 ft | 510 kts | 262° |
| 2026-05-04 09:11 | 50.22561 | -13.06813 | 34074 ft | 511 kts | 262° |
| 2026-05-04 09:11 | 50.21375 | -13.17748 | 34072 ft | 511 kts | 262° |
| 2026-05-04 09:12 | 50.20178 | -13.28686 | 34074 ft | 511 kts | 262° |
| 2026-05-04 09:14 | 50.15286 | -13.72410 | 34070 ft | 513 kts | 262° |
| 2026-05-04 09:14 | 50.14034 | -13.83358 | 34100 ft | 513 kts | 262° |
| 2026-05-04 09:15 | 50.12770 | -13.94304 | 34100 ft | 513 kts | 262° |
| 2026-05-04 09:15 | 50.11495 | -14.05253 | 34100 ft | 513 kts | 261° |
| 2026-05-04 09:17 | 50.05862 | -14.52555 | 34101 ft | 512 kts | 261° |
| 2026-05-04 09:18 | 50.04322 | -14.65205 | 34100 ft | 511 kts | 261° |
| 2026-05-04 09:18 | 50.03203 | -14.74309 | 34101 ft | 511 kts | 261° |
| 2026-05-04 09:19 | 50.01869 | -14.85077 | 34100 ft | 510 kts | 261° |
| 2026-05-04 09:19 | 50.00805 | -14.95944 | 34124 ft | 506 kts | 270° |
| 2026-05-04 09:20 | 50.00935 | -15.01388 | 34426 ft | 500 kts | 279° |
| 2026-05-04 09:20 | 50.01608 | -15.06652 | 34806 ft | 493 kts | 289° |
| 2026-05-04 09:20 | 50.02597 | -15.11737 | 35137 ft | 490 kts | 290° |
| 2026-05-04 09:20 | 50.03676 | -15.16748 | 35382 ft | 489 kts | 291° |
| 2026-05-04 09:21 | 50.04804 | -15.21736 | 35584 ft | 488 kts | 292° |
| 2026-05-04 09:21 | 50.05943 | -15.26702 | 35794 ft | 488 kts | 292° |
| 2026-05-04 09:21 | 50.07082 | -15.31680 | 35972 ft | 488 kts | 292° |
| 2026-05-04 09:21 | 50.08211 | -15.36658 | 36087 ft | 490 kts | 291° |
| 2026-05-04 09:22 | 50.10470 | -15.46757 | 36101 ft | 495 kts | 291° |
| 2026-05-04 09:22 | 50.12701 | -15.56889 | 36101 ft | 494 kts | 291° |
| 2026-05-04 09:23 | 50.14921 | -15.67021 | 36101 ft | 494 kts | 291° |
| 2026-05-04 09:23 | 50.17136 | -15.77174 | 36100 ft | 494 kts | 291° |
| 2026-05-04 09:25 | 50.25893 | -16.17773 | 36101 ft | 494 kts | 290° |
| 2026-05-04 09:26 | 50.28065 | -16.27967 | 36101 ft | 494 kts | 290° |
| 2026-05-04 09:26 | 50.30228 | -16.38174 | 36101 ft | 494 kts | 290° |
| 2026-05-04 09:27 | 50.32376 | -16.48364 | 36101 ft | 493 kts | 290° |
| 2026-05-04 09:27 | 50.34518 | -16.58566 | 36101 ft | 493 kts | 290° |
| 2026-05-04 09:28 | 50.36647 | -16.68768 | 36101 ft | 492 kts | 290° |
| 2026-05-04 09:28 | 50.38764 | -16.78966 | 36100 ft | 492 kts | 290° |
| 2026-05-04 09:29 | 50.40870 | -16.89157 | 36095 ft | 491 kts | 289° |
| 2026-05-04 09:29 | 50.42965 | -16.99353 | 36081 ft | 491 kts | 289° |
| 2026-05-04 09:30 | 50.45037 | -17.09479 | 36083 ft | 491 kts | 289° |
| 2026-05-04 09:30 | 50.47114 | -17.19680 | 36081 ft | 490 kts | 289° |
| 2026-05-04 09:31 | 50.49179 | -17.29884 | 36084 ft | 490 kts | 289° |
| 2026-05-04 09:31 | 50.51232 | -17.40081 | 36081 ft | 489 kts | 289° |
| 2026-05-04 09:32 | 50.53277 | -17.50284 | 36082 ft | 489 kts | 289° |
| 2026-05-04 09:34 | 50.61352 | -17.91145 | 36081 ft | 489 kts | 289° |
| 2026-05-04 09:34 | 50.63349 | -18.01383 | 36082 ft | 489 kts | 289° |
| 2026-05-04 09:35 | 50.65338 | -18.11621 | 36083 ft | 488 kts | 288° |
| 2026-05-04 09:35 | 50.67300 | -18.21787 | 36083 ft | 488 kts | 288° |
| 2026-05-04 09:37 | 50.75106 | -18.62781 | 36091 ft | 487 kts | 288° |
| 2026-05-04 09:38 | 50.77037 | -18.73043 | 36089 ft | 487 kts | 288° |
| 2026-05-04 09:38 | 50.78954 | -18.83305 | 36091 ft | 487 kts | 287° |
| 2026-05-04 09:39 | 50.80861 | -18.93586 | 36092 ft | 487 kts | 287° |
| 2026-05-04 09:39 | 50.82759 | -19.03866 | 36092 ft | 486 kts | 287° |
| 2026-05-04 09:40 | 50.84632 | -19.14070 | 36092 ft | 486 kts | 287° |
| 2026-05-04 09:40 | 50.86511 | -19.24355 | 36092 ft | 487 kts | 287° |
| 2026-05-04 09:42 | 50.93937 | -19.65564 | 36091 ft | 486 kts | 287° |
| 2026-05-04 09:43 | 50.95773 | -19.75889 | 36092 ft | 486 kts | 286° |
| 2026-05-04 09:43 | 50.97582 | -19.86143 | 36091 ft | 486 kts | 286° |
| 2026-05-04 09:44 | 50.99379 | -19.96477 | 36091 ft | 486 kts | 284° |
| 2026-05-04 09:46 | 51.01622 | -20.39210 | 36106 ft | 485 kts | 274° |
| 2026-05-04 09:46 | 51.02035 | -20.49904 | 36111 ft | 485 kts | 274° |
| 2026-05-04 09:47 | 51.02441 | -20.60603 | 36108 ft | 485 kts | 274° |
| 2026-05-04 09:49 | 51.03968 | -21.03317 | 36109 ft | 484 kts | 274° |
| 2026-05-04 09:51 | 51.05177 | -21.40724 | 36111 ft | 484 kts | 273° |
| 2026-05-04 09:51 | 51.05501 | -21.51416 | 36106 ft | 484 kts | 273° |
| 2026-05-04 09:52 | 51.05812 | -21.62020 | 36132 ft | 483 kts | 273° |
| 2026-05-04 09:52 | 51.06117 | -21.72700 | 36129 ft | 483 kts | 273° |
| 2026-05-04 09:53 | 51.06410 | -21.83374 | 36142 ft | 483 kts | 273° |
| 2026-05-04 09:53 | 51.06693 | -21.94043 | 36141 ft | 483 kts | 273° |
| 2026-05-04 09:54 | 51.06966 | -22.04716 | 36145 ft | 483 kts | 273° |
| 2026-05-04 09:54 | 51.07229 | -22.15378 | 36131 ft | 482 kts | 272° |
| 2026-05-04 09:55 | 51.07483 | -22.26030 | 36145 ft | 482 kts | 272° |
| 2026-05-04 09:55 | 51.07730 | -22.36691 | 36128 ft | 482 kts | 272° |
| 2026-05-04 09:56 | 51.07965 | -22.47345 | 36133 ft | 482 kts | 272° |
| 2026-05-04 09:56 | 51.08190 | -22.58003 | 36139 ft | 482 kts | 272° |
| 2026-05-04 09:57 | 51.08405 | -22.68661 | 36148 ft | 482 kts | 272° |
| 2026-05-04 09:57 | 51.08611 | -22.79312 | 36148 ft | 482 kts | 272° |
| 2026-05-04 09:58 | 51.08805 | -22.89983 | 36154 ft | 482 kts | 272° |
| 2026-05-04 09:58 | 51.08989 | -23.00639 | 36155 ft | 482 kts | 272° |
| 2026-05-04 10:00 | 51.09635 | -23.43180 | 36156 ft | 481 kts | 271° |
| 2026-05-04 10:04 | 51.10399 | -24.17691 | 36146 ft | 481 kts | 271° |
| 2026-05-04 10:04 | 51.10466 | -24.28323 | 36147 ft | 481 kts | 271° |
| 2026-05-04 10:05 | 51.10525 | -24.38887 | 36146 ft | 481 kts | 271° |
| 2026-05-04 10:05 | 51.10577 | -24.49526 | 36147 ft | 481 kts | 271° |
| 2026-05-04 10:06 | 51.10619 | -24.60173 | 36146 ft | 481 kts | 271° |
| 2026-05-04 10:06 | 51.10650 | -24.70807 | 36174 ft | 481 kts | 271° |
| 2026-05-04 10:08 | 51.10685 | -25.06228 | 36174 ft | 480 kts | 270° |
| 2026-05-04 10:08 | 51.10674 | -25.16854 | 36174 ft | 480 kts | 270° |
| 2026-05-04 10:09 | 51.10653 | -25.27483 | 36217 ft | 480 kts | 270° |
| 2026-05-04 10:09 | 51.10625 | -25.38109 | 36245 ft | 480 kts | 270° |
| 2026-05-04 10:10 | 51.10584 | -25.48731 | 36247 ft | 480 kts | 270° |
| 2026-05-04 10:10 | 51.10535 | -25.59351 | 36249 ft | 480 kts | 270° |
| 2026-05-04 10:11 | 51.10477 | -25.69965 | 36246 ft | 480 kts | 270° |
| 2026-05-04 10:11 | 51.10409 | -25.80579 | 36246 ft | 480 kts | 270° |
| 2026-05-04 10:12 | 51.10330 | -25.91203 | 36250 ft | 480 kts | 270° |
| 2026-05-04 10:12 | 51.10243 | -26.01818 | 36249 ft | 480 kts | 270° |
| 2026-05-04 10:13 | 51.10147 | -26.12360 | 36246 ft | 479 kts | 270° |
| 2026-05-04 10:13 | 51.10041 | -26.22961 | 36249 ft | 479 kts | 270° |
| 2026-05-04 10:14 | 51.09926 | -26.33549 | 36249 ft | 479 kts | 269° |
| 2026-05-04 10:16 | 51.09365 | -26.75889 | 36249 ft | 478 kts | 269° |
| 2026-05-04 10:16 | 51.09202 | -26.86469 | 36248 ft | 478 kts | 269° |
| 2026-05-04 10:17 | 51.09027 | -26.97037 | 36249 ft | 478 kts | 269° |
| 2026-05-04 10:19 | 51.08242 | -27.39251 | 36275 ft | 478 kts | 269° |
| 2026-05-04 10:19 | 51.08022 | -27.49805 | 36275 ft | 477 kts | 269° |
| 2026-05-04 10:20 | 51.07792 | -27.60370 | 36275 ft | 477 kts | 269° |
| 2026-05-04 10:20 | 51.07552 | -27.70921 | 36275 ft | 478 kts | 269° |
| 2026-05-04 10:21 | 51.07305 | -27.81478 | 36275 ft | 478 kts | 269° |
| 2026-05-04 10:21 | 51.07047 | -27.92035 | 36275 ft | 478 kts | 269° |
| 2026-05-04 10:22 | 51.06641 | -28.07855 | 36275 ft | 477 kts | 268° |
| 2026-05-04 10:23 | 51.06359 | -28.18396 | 36275 ft | 477 kts | 268° |
| 2026-05-04 10:25 | 51.05139 | -28.60455 | 36276 ft | 477 kts | 268° |
| 2026-05-04 10:25 | 51.04812 | -28.70974 | 36275 ft | 477 kts | 268° |
| 2026-05-04 10:26 | 51.04472 | -28.81498 | 36275 ft | 477 kts | 268° |
| 2026-05-04 10:26 | 51.04124 | -28.92020 | 36275 ft | 477 kts | 268° |
| 2026-05-04 10:27 | 51.03767 | -29.02547 | 36275 ft | 477 kts | 268° |
| 2026-05-04 10:27 | 51.03399 | -29.13076 | 36275 ft | 477 kts | 267° |
| 2026-05-04 10:28 | 51.03025 | -29.23583 | 36275 ft | 477 kts | 267° |
| 2026-05-04 10:28 | 51.02637 | -29.34094 | 36275 ft | 476 kts | 267° |
| 2026-05-04 10:29 | 51.02245 | -29.44536 | 36275 ft | 477 kts | 267° |
| 2026-05-04 10:29 | 51.01841 | -29.55056 | 36275 ft | 477 kts | 267° |
| 2026-05-04 10:30 | 51.01430 | -29.65565 | 36275 ft | 477 kts | 267° |
| 2026-05-04 10:30 | 51.01007 | -29.76066 | 36275 ft | 477 kts | 266° |
| 2026-05-04 10:31 | 51.00572 | -29.86580 | 36275 ft | 477 kts | 266° |
| 2026-05-04 10:32 | 51.00958 | -30.23317 | 36267 ft | 476 kts | 274° |
| 2026-05-04 10:33 | 51.01395 | -30.33811 | 36266 ft | 476 kts | 274° |
| 2026-05-04 10:33 | 51.01817 | -30.44308 | 36266 ft | 476 kts | 274° |
| 2026-05-04 10:34 | 51.02220 | -30.54727 | 36266 ft | 476 kts | 274° |
| 2026-05-04 10:34 | 51.02615 | -30.65214 | 36266 ft | 476 kts | 274° |
| 2026-05-04 10:35 | 51.02998 | -30.75708 | 36266 ft | 476 kts | 273° |
| 2026-05-04 10:35 | 51.03375 | -30.86200 | 36266 ft | 476 kts | 273° |
| 2026-05-04 10:36 | 51.03742 | -30.96704 | 36266 ft | 476 kts | 273° |
| 2026-05-04 10:36 | 51.04100 | -31.07197 | 36265 ft | 475 kts | 273° |
| 2026-05-04 10:37 | 51.04447 | -31.17690 | 36264 ft | 475 kts | 273° |
| 2026-05-04 10:37 | 51.04785 | -31.28187 | 36184 ft | 475 kts | 273° |